Time;durP1;ratioP1;P1;durP2;ratioP2;P2;SDS_P1;SDS_P2;PMS_P1;PMS_P2;Temp;Humidity;BMP_temperature;BMP_pressure;BME280_temperature;BME280_humidity;BME280_pressure;Samples;Min_cycle;Max_cycle;Signal;HPM_P1;HPM_P2
2021/10/11 04:48:59;;;;;;;9.93;7.80;;;2.70;95.80;;;;;;2488485;22;20234;-84
2021/10/11 04:51:27;;;;;;;12.50;8.80;;;2.80;96.00;;;;;;5012738;28;20211;-86
2021/10/11 04:53:54;;;;;;;12.77;8.20;;;2.90;95.90;;;;;;5012206;28;20219;-86
2021/10/11 04:56:22;;;;;;;10.23;8.03;;;2.90;95.50;;;;;;5016170;28;20203;-87
2021/10/11 04:58:48;;;;;;;11.70;8.63;;;2.80;95.80;;;;;;5015857;28;20310;-86
2021/10/11 05:04:39;;;;;;;10.20;7.87;;;2.80;95.90;;;;;;5014941;28;20702;-85
2021/10/11 05:07:08;;;;;;;11.90;8.20;;;2.80;95.80;;;;;;5010926;28;20570;-90
2021/10/11 05:09:35;;;;;;;10.70;8.10;;;2.80;95.80;;;;;;5017492;28;20235;-87
2021/10/11 05:12:02;;;;;;;11.57;7.97;;;2.80;96.00;;;;;;5016125;28;20906;-85
2021/10/11 05:14:29;;;;;;;10.63;7.57;;;2.80;95.70;;;;;;5035647;28;20929;-89
2021/10/11 05:16:56;;;;;;;9.87;7.63;;;2.80;95.60;;;;;;5035165;28;20294;-86
2021/10/11 05:19:25;;;;;;;10.37;7.33;;;2.70;95.50;;;;;;5036690;28;20231;-86
2021/10/11 05:21:58;;;;;;;9.87;7.50;;;2.70;95.70;;;;;;5032744;28;20210;-86
2021/10/11 05:24:26;;;;;;;10.43;8.33;;;2.80;95.60;;;;;;5036815;28;20313;-85
2021/10/11 05:26:55;;;;;;;10.00;7.20;;;2.80;95.60;;;;;;5038779;28;20212;-87
2021/10/11 05:29:23;;;;;;;9.33;7.70;;;2.90;95.50;;;;;;5032567;28;20233;-88
2021/10/11 05:32:01;;;;;;;9.37;7.23;;;2.80;95.50;;;;;;5038459;28;20209;-88
2021/10/11 05:34:28;;;;;;;13.60;7.63;;;2.80;95.40;;;;;;5041165;28;20229;-89
2021/10/11 05:36:55;;;;;;;11.60;8.07;;;2.80;95.20;;;;;;5041381;28;20194;-89
2021/10/11 05:39:22;;;;;;;10.70;7.80;;;2.80;95.20;;;;;;5045669;28;20221;-90
2021/10/11 05:41:51;;;;;;;12.33;8.27;;;2.80;95.30;;;;;;5040831;28;20205;-90
2021/10/11 05:44:18;;;;;;;10.67;7.60;;;2.90;95.20;;;;;;5041241;28;20217;-90
2021/10/11 05:46:45;;;;;;;11.20;7.20;;;2.90;95.00;;;;;;5035840;28;20833;-87
2021/10/11 05:49:12;;;;;;;9.60;7.43;;;2.90;94.90;;;;;;5033758;28;20222;-88
2021/10/11 05:51:40;;;;;;;17.13;8.17;;;2.90;94.90;;;;;;5034124;28;20199;-87
2021/10/11 05:54:07;;;;;;;11.10;7.30;;;2.90;94.90;;;;;;5024461;28;20233;-88
2021/10/11 05:56:33;;;;;;;12.00;7.53;;;2.80;95.00;;;;;;5040382;28;20206;-87
2021/10/11 05:59:03;;;;;;;9.63;6.93;;;2.80;95.30;;;;;;5030034;28;20228;-86
2021/10/11 06:01:45;;;;;;;8.23;6.87;;;2.80;95.40;;;;;;5032620;28;20195;-88
2021/10/11 06:04:13;;;;;;;10.80;7.10;;;2.90;95.50;;;;;;5037120;28;20249;-87
2021/10/11 06:06:40;;;;;;;10.67;7.20;;;2.80;95.60;;;;;;5034808;28;20232;-89
2021/10/11 06:09:07;;;;;;;9.93;7.17;;;2.90;95.90;;;;;;5031503;28;20636;-89
2021/10/11 06:11:34;;;;;;;9.67;7.27;;;2.90;95.90;;;;;;5031518;28;20198;-90
2021/10/11 06:14:03;;;;;;;10.10;7.27;;;3.00;96.00;;;;;;5032885;28;20226;-89
2021/10/11 06:16:30;;;;;;;13.50;7.23;;;3.20;96.10;;;;;;5031640;28;20194;-89
2021/10/11 06:18:56;;;;;;;10.60;7.03;;;3.20;96.10;;;;;;5031073;28;20231;-88
2021/10/11 06:21:24;;;;;;;9.73;7.93;;;3.30;96.00;;;;;;5030512;28;20206;-87
2021/10/11 06:23:52;;;;;;;9.40;7.00;;;3.30;96.10;;;;;;5036763;28;20248;-89
2021/10/11 06:26:19;;;;;;;9.17;6.80;;;3.30;96.30;;;;;;5031130;28;20556;-91
2021/10/11 06:28:46;;;;;;;11.23;7.27;;;3.40;96.50;;;;;;5036414;28;20744;-88
2021/10/11 06:31:14;;;;;;;8.20;6.70;;;3.50;96.40;;;;;;5036159;28;20669;-89
2021/10/11 06:33:41;;;;;;;8.47;6.13;;;3.70;95.90;;;;;;5037725;28;20591;-90
2021/10/11 06:36:08;;;;;;;8.33;6.63;;;3.70;95.90;;;;;;5033921;28;20557;-90
2021/10/11 06:38:35;;;;;;;7.97;6.10;;;3.80;95.70;;;;;;5033106;28;20230;-88
2021/10/11 06:41:03;;;;;;;9.93;6.10;;;3.80;95.60;;;;;;5034366;28;20206;-88
2021/10/11 06:43:30;;;;;;;8.97;6.40;;;3.90;95.30;;;;;;5039908;28;20229;-90
2021/10/11 06:45:57;;;;;;;7.13;5.70;;;4.00;95.30;;;;;;5040494;28;20206;-88
2021/10/11 06:48:25;;;;;;;8.40;6.03;;;4.10;95.20;;;;;;5037341;28;20573;-87
2021/10/11 06:50:52;;;;;;;9.03;6.10;;;4.10;95.30;;;;;;5033956;28;20226;-88
2021/10/11 06:53:19;;;;;;;8.97;5.90;;;4.10;95.40;;;;;;5025329;28;20226;-88
2021/10/11 06:55:46;;;;;;;9.30;6.07;;;4.20;95.90;;;;;;5042031;28;20201;-88
2021/10/11 06:58:13;;;;;;;10.47;6.00;;;4.30;95.30;;;;;;5036191;28;20222;-90
2021/10/11 07:00:40;;;;;;;7.47;5.70;;;4.40;95.00;;;;;;5042780;28;20605;-90
2021/10/11 07:03:07;;;;;;;8.40;5.50;;;4.40;95.00;;;;;;5041165;28;20229;-89
2021/10/11 07:05:35;;;;;;;9.07;5.30;;;4.40;95.00;;;;;;5045147;28;20257;-90
2021/10/11 07:08:08;;;;;;;8.60;5.87;;;4.50;95.00;;;;;;5041340;28;20294;-89
2021/10/11 07:10:36;;;;;;;6.00;5.00;;;4.60;95.00;;;;;;5041765;28;20205;-90
2021/10/11 07:13:03;;;;;;;6.20;5.00;;;4.70;95.00;;;;;;5054684;28;20665;-85
2021/10/11 07:15:30;;;;;;;6.20;5.07;;;4.80;95.00;;;;;;5053982;28;20286;-87
2021/10/11 07:17:58;;;;;;;8.60;5.60;;;4.90;94.80;;;;;;5045354;28;20233;-86
2021/10/11 07:20:25;;;;;;;6.93;5.10;;;4.90;94.80;;;;;;5040429;28;20614;-85
2021/10/11 07:22:53;;;;;;;9.23;5.70;;;4.90;95.00;;;;;;5048400;28;20209;-85
2021/10/11 07:25:49;;;;;;;6.97;5.80;;;5.10;95.10;;;;;;5059179;28;20202;-88
2021/10/11 07:28:16;;;;;;;6.93;5.20;;;5.20;94.80;;;;;;5030288;28;20662;-89
2021/10/11 07:30:43;;;;;;;7.40;5.47;;;5.30;94.50;;;;;;5026774;28;20205;-89
2021/10/11 07:33:16;;;;;;;9.07;5.40;;;5.40;94.50;;;;;;5041167;28;20205;-89
2021/10/11 07:36:24;;;;;;;6.60;5.40;;;5.50;94.20;;;;;;5037900;28;20205;-87
2021/10/11 07:38:52;;;;;;;6.67;5.60;;;5.60;94.00;;;;;;5041754;28;20612;-88
2021/10/11 07:41:19;;;;;;;7.97;5.77;;;5.60;94.20;;;;;;5047223;28;20777;-92
2021/10/11 07:43:48;;;;;;;9.43;6.20;;;5.60;94.30;;;;;;5043044;28;20222;-92
2021/10/11 07:46:15;;;;;;;9.37;5.80;;;5.80;94.60;;;;;;5044156;28;20194;-92
2021/10/11 07:48:43;;;;;;;6.73;6.03;;;5.90;94.00;;;;;;5033498;28;20226;-92
2021/10/11 07:51:11;;;;;;;8.53;6.40;;;6.10;93.30;;;;;;5037874;28;20203;-91
2021/10/11 07:53:37;;;;;;;6.80;6.07;;;6.20;93.20;;;;;;5040407;28;20225;-92
2021/10/11 07:56:17;;;;;;;7.43;6.00;;;6.30;92.90;;;;;;5043077;28;20650;-91
2021/10/11 07:58:44;;;;;;;7.70;5.93;;;6.30;93.00;;;;;;5034955;28;20229;-91
2021/10/11 08:01:57;;;;;;;7.70;6.30;;;6.30;93.20;;;;;;5046231;28;20213;-92
2021/10/11 08:04:23;;;;;;;7.60;6.30;;;6.50;93.00;;;;;;5037564;28;20566;-93
2021/10/11 08:06:58;;;;;;;9.87;6.70;;;6.70;92.90;;;;;;5036112;28;20214;-93
2021/10/11 08:09:25;;;;;;;6.93;6.23;;;6.70;92.80;;;;;;5042992;28;20250;-91
2021/10/11 08:16:26;;;;;;;8.07;6.17;;;7.00;91.80;;;;;;4997117;28;20219;-91
2021/10/11 08:23:06;;;;;;;7.63;6.45;;;7.30;90.10;;;;;;4999242;28;20231;-91
2021/10/11 08:32:36;;;;;;;10.10;6.80;;;7.80;86.60;;;;;;5039833;28;20183;-91
2021/10/11 08:35:23;;;;;;;13.25;6.32;;;7.80;87.50;;;;;;5039254;28;20218;-91
2021/10/11 08:38:04;;;;;;;9.10;6.78;;;7.90;88.20;;;;;;5042703;28;20621;-91
2021/10/11 08:40:31;;;;;;;9.05;6.47;;;8.10;86.50;;;;;;5039125;28;20190;-91
2021/10/11 08:46:29;;;;;;;9.20;7.07;;;8.30;86.00;;;;;;5018246;28;20167;-91
2021/10/11 09:03:29;;;;;;;10.20;7.38;;;10.20;73.20;;;;;;5025229;28;20179;-92
2021/10/11 09:08:49;;;;;;;8.88;7.07;;;13.00;55.30;;;;;;5054100;28;20218;-92
2021/10/11 09:11:22;;;;;;;10.80;7.38;;;14.70;39.10;;;;;;5038114;28;20213;-88
2021/10/11 09:13:52;;;;;;;8.38;6.75;;;17.20;32.10;;;;;;5049353;28;20224;-88
2021/10/11 09:16:29;;;;;;;7.80;6.82;;;18.30;30.60;;;;;;5035233;28;20206;-86
2021/10/11 09:18:58;;;;;;;9.07;6.93;;;20.00;25.30;;;;;;5034139;28;20288;-88
2021/10/11 09:21:34;;;;;;;9.38;8.10;;;21.70;21.00;;;;;;5030735;28;20276;-89
2021/10/11 09:24:08;;;;;;;9.82;7.18;;;22.60;19.10;;;;;;5027386;28;20224;-88
2021/10/11 09:26:43;;;;;;;10.23;7.78;;;22.40;19.70;;;;;;5028181;28;20209;-86
2021/10/11 09:29:10;;;;;;;10.88;7.35;;;23.00;18.00;;;;;;5033057;28;20226;-88
2021/10/11 09:31:39;;;;;;;10.07;8.30;;;23.80;16.60;;;;;;5037140;28;20194;-87
2021/10/11 09:34:07;;;;;;;12.60;7.70;;;24.20;15.60;;;;;;5031722;28;20269;-87
2021/10/11 09:36:40;;;;;;;10.35;7.50;;;23.30;17.40;;;;;;5035104;28;20209;-88
2021/10/11 09:39:07;;;;;;;9.10;8.10;;;23.30;16.30;;;;;;5031140;28;20272;-88
2021/10/11 09:41:34;;;;;;;15.52;8.82;;;23.30;16.60;;;;;;5029731;28;20684;-88
2021/10/11 09:44:12;;;;;;;10.90;8.77;;;23.00;17.30;;;;;;5033081;28;20312;-87
2021/10/11 09:46:45;;;;;;;14.63;9.05;;;22.50;17.20;;;;;;5032378;28;20198;-87
2021/10/11 09:49:33;;;;;;;9.80;8.70;;;21.80;18.00;;;;;;5032881;28;20222;-87
2021/10/11 09:52:03;;;;;;;9.05;8.15;;;22.10;16.80;;;;;;5031936;28;20210;-88
2021/10/11 09:54:31;;;;;;;10.57;8.00;;;21.60;17.40;;;;;;5033816;28;20221;-90
2021/10/11 09:56:58;;;;;;;12.52;8.93;;;21.60;17.20;;;;;;5034216;28;20268;-90
2021/10/11 09:59:27;;;;;;;13.35;8.93;;;21.50;18.40;;;;;;5045261;28;20221;-89
2021/10/11 10:02:01;;;;;;;10.82;8.52;;;21.40;16.90;;;;;;5044929;28;20205;-88
2021/10/11 10:04:33;;;;;;;13.38;9.18;;;21.10;17.40;;;;;;5032715;28;20712;-87
2021/10/11 10:07:07;;;;;;;10.95;8.82;;;20.60;18.20;;;;;;5032662;28;20189;-87
2021/10/11 10:09:48;;;;;;;10.80;8.90;;;21.10;19.30;;;;;;5030653;28;20241;-88
2021/10/11 10:12:15;;;;;;;11.23;9.13;;;21.70;17.30;;;;;;5032732;28;20228;-88
2021/10/11 10:14:42;;;;;;;14.82;9.32;;;21.70;16.80;;;;;;5042426;28;20237;-87
2021/10/11 10:17:30;;;;;;;10.05;8.98;;;21.60;17.20;;;;;;5041379;28;20193;-88
2021/10/11 10:20:08;;;;;;;9.90;8.88;;;21.40;17.00;;;;;;5028993;28;20233;-86
2021/10/11 10:22:49;;;;;;;11.48;9.13;;;21.00;18.50;;;;;;5034564;28;20621;-86
2021/10/11 10:25:16;;;;;;;15.88;9.70;;;21.20;17.90;;;;;;5033923;28;20244;-88
2021/10/11 10:27:44;;;;;;;11.90;10.07;;;21.50;18.70;;;;;;5026516;28;20205;-87
2021/10/11 10:30:38;;;;;;;11.95;9.93;;;21.80;19.20;;;;;;5047841;28;20233;-90
2021/10/11 10:33:07;;;;;;;9.75;8.75;;;21.40;19.40;;;;;;5037642;28;20194;-88
2021/10/11 10:35:38;;;;;;;13.40;8.95;;;21.30;18.60;;;;;;5038382;28;20634;-88
2021/10/11 10:38:16;;;;;;;11.43;8.85;;;21.70;19.50;;;;;;5036002;28;20221;-89
2021/10/11 10:44:14;;;;;;;10.07;8.23;;;20.80;17.50;;;;;;5030260;28;20264;-88
2021/10/11 10:46:55;;;;;;;11.88;8.90;;;20.30;19.70;;;;;;5035805;28;20194;-88
2021/10/11 10:49:30;;;;;;;13.20;8.20;;;19.80;18.90;;;;;;5033273;28;20232;-89
2021/10/11 10:51:57;;;;;;;11.38;8.85;;;19.80;20.10;;;;;;5037587;28;20244;-87
2021/10/11 10:54:44;;;;;;;11.30;8.20;;;19.90;20.90;;;;;;5037279;28;20224;-87
2021/10/11 10:57:13;;;;;;;10.43;9.23;;;19.50;23.10;;;;;;5038844;28;20259;-89
2021/10/11 11:00:13;;;;;;;15.50;9.40;;;18.70;22.50;;;;;;5037834;28;20226;-90
2021/10/11 11:02:45;;;;;;;11.25;8.45;;;17.70;24.50;;;;;;5038403;28;20198;-91
2021/10/11 11:06:17;;;;;;;11.02;9.50;;;17.50;27.40;;;;;;4960737;29;20668;-91
2021/10/11 11:08:44;;;;;;;10.23;8.40;;;16.80;26.90;;;;;;4962686;28;20641;-90
2021/10/11 11:44:58;;;;;;;9.88;6.90;;;14.70;31.00;;;;;;5054912;28;20232;-92
2021/10/11 11:47:29;;;;;;;12.85;7.60;;;14.80;29.80;;;;;;5057573;28;20646;-91
2021/10/11 11:49:56;;;;;;;8.35;7.38;;;14.90;30.10;;;;;;5056392;28;20685;-92
2021/10/11 11:52:31;;;;;;;9.00;7.68;;;14.90;30.00;;;;;;5056840;28;20192;-92
2021/10/11 11:55:17;;;;;;;11.88;6.95;;;14.70;31.10;;;;;;5048247;28;20304;-92
2021/10/11 11:57:45;;;;;;;11.52;7.15;;;14.70;29.00;;;;;;5036490;28;20653;-92
2021/10/11 12:00:15;;;;;;;7.50;6.35;;;14.80;30.00;;;;;;5036882;28;20549;-91
2021/10/11 12:02:44;;;;;;;11.07;7.75;;;14.70;27.60;;;;;;5037541;28;20195;-92
2021/10/11 12:05:12;;;;;;;10.32;7.43;;;14.60;30.80;;;;;;5039687;28;20208;-92
2021/10/11 12:11:03;;;;;;;10.75;5.93;;;14.70;30.20;;;;;;5045982;28;20305;-93
2021/10/11 12:13:32;;;;;;;7.82;5.43;;;14.80;28.60;;;;;;5054776;28;20253;-93
2021/10/11 12:18:46;;;;;;;8.43;4.70;;;14.80;27.30;;;;;;5055117;28;20225;-93
2021/10/11 12:21:23;;;;;;;6.07;4.95;;;14.90;26.50;;;;;;5055839;28;20204;-93
2021/10/11 12:23:51;;;;;;;8.93;6.32;;;14.90;27.80;;;;;;5054084;28;20218;-92
2021/10/11 12:26:19;;;;;;;9.80;6.13;;;14.80;27.70;;;;;;5056824;28;20189;-92
2021/10/11 12:28:51;;;;;;;6.72;5.35;;;14.50;27.40;;;;;;5055852;28;20238;-92
2021/10/11 12:40:53;;;;;;;10.43;5.47;;;14.40;27.30;;;;;;5056801;28;20549;-92
2021/10/11 12:47:06;;;;;;;9.57;5.55;;;14.60;27.50;;;;;;5035939;28;20158;-92
2021/10/11 12:49:35;;;;;;;6.18;5.07;;;14.70;27.60;;;;;;5036233;28;20321;-92
2021/10/11 12:54:45;;;;;;;6.30;5.43;;;14.60;27.50;;;;;;5035386;28;20233;-92
2021/10/11 12:57:12;;;;;;;8.98;4.70;;;14.50;27.40;;;;;;5062971;28;20193;-92
2021/10/11 13:00:05;;;;;;;7.55;5.25;;;14.50;26.70;;;;;;5081279;28;20233;-92
2021/10/11 13:02:40;;;;;;;11.10;4.97;;;14.40;27.40;;;;;;5076263;28;20266;-92
2021/10/11 15:59:02;;;;;;;7.47;5.65;;;12.40;36.70;;;;;;5099515;28;20242;-87
2021/10/11 16:01:41;;;;;;;9.02;6.57;;;12.20;37.80;;;;;;5084513;28;20268;-88
2021/10/11 16:04:08;;;;;;;13.77;6.78;;;12.00;38.60;;;;;;5101498;27;20228;-87
2021/10/11 16:09:58;;;;;;;11.93;7.28;;;12.00;39.30;;;;;;5103879;28;20247;-87
2021/10/11 16:12:30;;;;;;;10.23;6.28;;;12.00;39.60;;;;;;5101519;28;20634;-88
2021/10/11 16:14:58;;;;;;;11.20;6.60;;;12.00;39.30;;;;;;5083774;28;20224;-87
2021/10/11 16:17:25;;;;;;;8.48;5.90;;;12.00;37.90;;;;;;5095826;28;20196;-87
2021/10/11 16:19:53;;;;;;;10.45;6.18;;;11.90;37.90;;;;;;5085553;28;20289;-87
2021/10/11 16:22:20;;;;;;;8.63;5.68;;;11.90;37.70;;;;;;5101160;28;20196;-86
2021/10/11 16:28:07;;;;;;;10.45;6.07;;;11.90;38.70;;;;;;5089303;28;20232;-89
2021/10/11 16:30:36;;;;;;;8.73;6.45;;;11.80;39.30;;;;;;5093262;28;20221;-91
2021/10/11 16:33:03;;;;;;;13.25;6.30;;;11.70;40.60;;;;;;5095729;28;20256;-89
2021/10/11 16:38:12;;;;;;;11.80;6.55;;;11.60;40.20;;;;;;5089621;28;20227;-88
2021/10/11 16:40:40;;;;;;;9.40;5.85;;;11.50;39.70;;;;;;5088208;28;20224;-89
2021/10/11 16:43:08;;;;;;;10.20;6.00;;;11.40;40.00;;;;;;5092073;28;20280;-90
2021/10/11 16:46:03;;;;;;;13.05;6.13;;;11.30;40.30;;;;;;5086703;28;20239;-89
2021/10/11 16:48:30;;;;;;;10.70;5.95;;;11.30;46.00;;;;;;5100050;28;20283;-89
2021/10/11 16:50:57;;;;;;;10.30;5.97;;;11.20;47.80;;;;;;5108073;28;20251;-87
2021/10/11 16:53:24;;;;;;;12.10;5.80;;;11.20;47.90;;;;;;5109774;27;20204;-87
2021/10/11 16:55:51;;;;;;;13.18;5.95;;;11.10;47.80;;;;;;5106428;28;20228;-90
2021/10/11 16:58:19;;;;;;;13.57;6.95;;;11.10;47.80;;;;;;5086574;28;20226;-89
2021/10/11 17:00:46;;;;;;;13.35;6.53;;;11.10;47.80;;;;;;5090898;28;20211;-89
2021/10/11 17:03:14;;;;;;;8.48;5.90;;;11.10;47.80;;;;;;5089076;28;20227;-89
2021/10/11 17:05:41;;;;;;;10.18;6.22;;;11.10;47.70;;;;;;5091375;28;20599;-87
2021/10/11 17:08:08;;;;;;;14.07;6.78;;;11.10;47.70;;;;;;5090218;28;20304;-89
2021/10/11 17:10:35;;;;;;;8.98;6.47;;;11.10;47.70;;;;;;5091004;28;20209;-88
2021/10/11 17:13:02;;;;;;;9.82;6.15;;;11.10;47.70;;;;;;5092271;28;20708;-88
2021/10/11 17:15:29;;;;;;;9.30;6.05;;;11.20;47.80;;;;;;5083053;28;20231;-87
2021/10/11 17:17:56;;;;;;;10.93;6.47;;;11.10;48.20;;;;;;5087677;28;20230;-87
2021/10/11 17:20:25;;;;;;;9.95;6.18;;;11.10;51.50;;;;;;5087729;28;20272;-87
2021/10/11 17:23:02;;;;;;;10.40;5.97;;;11.10;53.30;;;;;;5085445;28;20565;-88
2021/10/11 17:25:29;;;;;;;7.75;5.88;;;11.00;51.60;;;;;;5094582;28;20250;-87
2021/10/11 17:27:56;;;;;;;8.90;6.30;;;11.10;52.80;;;;;;5084734;28;20201;-87
2021/10/11 17:30:23;;;;;;;11.10;6.30;;;11.00;51.80;;;;;;5083349;28;20470;-87
2021/10/11 17:43:21;;;;;;;12.02;6.53;;;11.00;56.20;;;;;;5085709;28;20552;-86
2021/10/11 18:06:42;;;;;;;13.65;6.95;;;10.70;59.10;;;;;;5083005;28;20181;-87
2021/10/11 18:09:09;;;;;;;10.63;7.05;;;10.70;60.50;;;;;;5088322;28;20284;-86
2021/10/11 18:11:36;;;;;;;10.00;6.68;;;10.60;61.00;;;;;;5083289;28;20695;-87
2021/10/11 18:14:04;;;;;;;10.35;7.60;;;10.60;61.00;;;;;;5233314;22;20264;-85
2021/10/11 18:16:31;;;;;;;12.77;7.05;;;10.60;61.10;;;;;;5083396;28;20205;-85
2021/10/11 18:18:58;;;;;;;12.73;7.35;;;10.60;64.10;;;;;;5082702;28;20311;-85
2021/10/11 18:32:25;;;;;;;11.70;7.57;;;10.50;65.90;;;;;;5080247;28;20219;-86
2021/10/11 18:34:52;;;;;;;10.02;7.68;;;10.50;66.60;;;;;;5066705;28;20222;-85
2021/10/11 18:37:41;;;;;;;11.98;7.50;;;10.60;68.90;;;;;;5062851;28;20289;-85
2021/10/11 18:41:03;;;;;;;11.27;7.80;;;10.50;68.70;;;;;;5059558;28;20198;-85
2021/10/11 18:50:28;;;;;;;10.63;7.45;;;10.40;71.80;;;;;;5080546;28;20178;-86
2021/10/11 18:52:55;;;;;;;11.50;8.38;;;10.40;72.40;;;;;;5085334;28;20181;-86
2021/10/11 18:55:22;;;;;;;10.73;8.40;;;10.40;73.50;;;;;;5085881;28;20208;-86
2021/10/11 19:04:54;;;;;;;12.45;6.95;;;10.20;71.70;;;;;;5084670;28;20215;-86
2021/10/11 19:07:44;;;;;;;11.13;7.65;;;10.20;70.40;;;;;;5085510;28;20648;-85
2021/10/11 19:10:13;;;;;;;11.68;7.60;;;10.20;70.40;;;;;;5082520;28;20217;-87
2021/10/11 19:24:40;;;;;;;13.05;8.00;;;9.80;74.70;;;;;;5063667;28;20225;-86
2021/10/11 19:27:07;;;;;;;14.40;8.60;;;9.80;74.80;;;;;;5063233;28;20266;-86
2021/10/11 19:29:34;;;;;;;11.43;8.15;;;9.80;74.70;;;;;;5062766;28;20279;-86
2021/10/11 19:32:02;;;;;;;11.13;8.25;;;9.80;74.80;;;;;;5060913;28;20245;-87
2021/10/11 19:34:29;;;;;;;9.48;7.53;;;9.80;74.70;;;;;;5060110;28;20234;-86
2021/10/11 19:37:43;;;;;;;11.18;8.18;;;9.90;76.70;;;;;;5051685;28;20206;-86
2021/10/11 19:40:12;;;;;;;11.40;8.45;;;9.70;76.70;;;;;;5059699;28;20244;-87
2021/10/11 19:42:51;;;;;;;14.45;8.70;;;9.60;76.60;;;;;;5063200;28;20213;-86
2021/10/11 19:45:18;;;;;;;11.30;8.50;;;9.60;77.10;;;;;;5059780;28;20198;-86
2021/10/11 19:47:45;;;;;;;12.35;8.55;;;9.50;77.90;;;;;;5056799;28;20671;-86
2021/10/11 19:50:14;;;;;;;10.35;7.97;;;9.60;77.90;;;;;;5057364;28;20289;-86
2021/10/11 19:53:13;;;;;;;9.73;7.72;;;9.60;77.40;;;;;;5051102;28;20252;-87
2021/10/11 19:55:42;;;;;;;13.95;8.15;;;9.50;77.40;;;;;;5058418;28;20200;-86
2021/10/11 19:58:31;;;;;;;14.35;8.48;;;9.60;78.10;;;;;;5059471;28;20272;-88
2021/10/11 20:00:58;;;;;;;13.75;8.63;;;9.50;78.30;;;;;;5061714;28;20197;-86
2021/10/11 20:03:25;;;;;;;11.18;8.15;;;9.50;78.40;;;;;;5057474;28;20300;-86
2021/10/11 20:05:51;;;;;;;11.85;8.32;;;9.60;78.20;;;;;;5062054;28;20229;-86
2021/10/11 20:08:18;;;;;;;10.20;8.10;;;9.50;78.30;;;;;;5053318;28;20214;-86
2021/10/11 20:10:53;;;;;;;13.82;8.55;;;9.50;79.10;;;;;;5061775;28;20229;-86
2021/10/11 20:13:20;;;;;;;12.57;7.90;;;9.40;79.30;;;;;;5052729;28;20245;-87
2021/10/11 20:15:57;;;;;;;11.13;8.10;;;9.30;81.20;;;;;;5056049;28;20256;-87
2021/10/11 20:18:24;;;;;;;10.82;7.97;;;9.30;82.60;;;;;;5054546;28;20292;-86
2021/10/11 20:20:51;;;;;;;9.20;7.85;;;9.20;81.80;;;;;;5059146;28;20198;-87
2021/10/11 20:23:18;;;;;;;14.73;8.85;;;9.10;81.80;;;;;;5060031;28;20285;-84
2021/10/11 20:25:59;;;;;;;12.07;8.32;;;9.10;83.90;;;;;;5059761;28;20194;-85
2021/10/11 20:28:25;;;;;;;13.80;8.52;;;9.00;84.30;;;;;;5056469;28;20204;-84
2021/10/11 20:31:42;;;;;;;11.13;8.27;;;9.00;83.20;;;;;;5060970;28;20201;-84
2021/10/11 20:34:09;;;;;;;12.77;8.68;;;8.90;82.90;;;;;;5061795;28;20198;-85
2021/10/11 20:36:36;;;;;;;11.30;8.43;;;8.90;83.30;;;;;;5060123;28;20198;-85
2021/10/11 20:39:28;;;;;;;11.75;8.23;;;8.90;83.80;;;;;;5060741;28;20202;-85
2021/10/11 20:41:56;;;;;;;13.85;8.70;;;8.90;83.70;;;;;;5061382;28;20217;-84
2021/10/11 20:47:47;;;;;;;13.15;9.25;;;8.80;84.90;;;;;;5041566;28;20301;-85
2021/10/11 20:53:36;;;;;;;15.27;9.40;;;8.90;86.00;;;;;;5061899;28;20174;-84
2021/10/11 20:56:03;;;;;;;14.05;9.50;;;9.00;87.10;;;;;;5071241;28;20195;-85
2021/10/11 20:58:32;;;;;;;14.07;8.95;;;9.20;86.20;;;;;;5086839;27;20288;-84
2021/10/11 21:00:59;;;;;;;15.57;9.32;;;9.30;86.30;;;;;;5082376;28;20273;-85
2021/10/11 21:03:26;;;;;;;10.93;9.07;;;9.50;85.90;;;;;;5064854;28;20222;-85
2021/10/11 21:06:00;;;;;;;14.77;10.20;;;9.60;85.40;;;;;;5063485;28;20195;-87
2021/10/11 21:08:27;;;;;;;14.50;9.75;;;9.70;84.70;;;;;;5059964;28;20257;-87
2021/10/11 21:10:54;;;;;;;13.85;10.05;;;9.70;83.50;;;;;;5059549;28;20225;-87
2021/10/11 21:13:22;;;;;;;15.10;10.35;;;9.70;83.30;;;;;;5086807;22;20228;-88
2021/10/11 21:15:50;;;;;;;15.55;11.35;;;9.70;82.60;;;;;;5064335;28;20190;-86
2021/10/11 21:18:17;;;;;;;14.38;10.70;;;9.80;83.90;;;;;;5063803;28;20238;-86
2021/10/11 21:20:44;;;;;;;15.32;12.00;;;9.70;83.60;;;;;;5072517;28;20578;-86
2021/10/11 21:23:11;;;;;;;24.48;12.65;;;9.80;83.80;;;;;;5080184;28;20221;-86
2021/10/11 21:25:38;;;;;;;19.35;13.55;;;9.80;83.30;;;;;;5084360;28;20285;-87
2021/10/11 21:28:23;;;;;;;19.98;13.80;;;9.90;83.60;;;;;;5084219;28;20316;-86
2021/10/11 21:44:41;;;;;;;21.70;14.38;;;10.10;82.60;;;;;;5082016;28;20285;-86
2021/10/11 21:47:41;;;;;;;20.45;14.82;;;10.10;82.90;;;;;;5084194;28;20185;-87
2021/10/11 21:51:02;;;;;;;20.77;14.50;;;10.20;81.20;;;;;;5082455;28;20201;-87
2021/10/11 21:53:29;;;;;;;18.25;13.95;;;10.20;81.60;;;;;;5083149;28;20280;-86
2021/10/11 21:55:56;;;;;;;19.48;13.70;;;10.10;83.00;;;;;;5084790;28;20508;-87
2021/10/11 21:59:14;;;;;;;21.80;14.10;;;10.20;82.60;;;;;;5092494;27;20208;-86
2021/10/11 22:05:15;;;;;;;22.90;15.55;;;10.10;83.20;;;;;;5091881;27;20192;-86
2021/10/11 22:07:43;;;;;;;22.42;15.05;;;10.10;84.30;;;;;;5084128;28;20181;-86
2021/10/11 22:10:10;;;;;;;22.70;15.75;;;10.20;84.00;;;;;;5081589;28;20283;-87
2021/10/11 22:34:08;;;;;;;25.85;18.67;;;10.00;92.70;;;;;;5081671;28;20208;-86
2021/10/11 22:36:44;;;;;;;27.58;19.08;;;9.80;93.90;;;;;;5061130;28;20202;-87
2021/10/11 22:39:11;;;;;;;30.02;19.23;;;9.70;94.30;;;;;;5078221;28;20201;-87
2021/10/11 22:41:38;;;;;;;30.02;19.55;;;9.60;94.90;;;;;;5079516;28;20197;-87
2021/10/11 22:44:05;;;;;;;27.10;19.92;;;9.50;95.10;;;;;;5080089;28;20279;-87
2021/10/11 22:46:32;;;;;;;31.80;20.90;;;9.50;96.00;;;;;;5075268;28;20197;-87
2021/10/11 22:48:59;;;;;;;26.98;20.20;;;9.40;96.00;;;;;;5079896;28;20207;-87
2021/10/11 22:51:32;;;;;;;29.40;20.98;;;9.30;96.80;;;;;;5066561;28;20308;-87
2021/10/11 22:53:59;;;;;;;30.50;21.38;;;9.20;97.00;;;;;;5068889;28;20245;-87
2021/10/11 22:56:26;;;;;;;32.33;21.63;;;9.30;97.50;;;;;;5075037;28;20280;-86
2021/10/11 22:58:52;;;;;;;31.25;22.75;;;9.20;98.00;;;;;;5080397;28;20217;-86
2021/10/11 23:01:21;;;;;;;29.13;21.83;;;9.20;98.10;;;;;;5079336;28;20660;-87
2021/10/11 23:03:48;;;;;;;28.00;21.27;;;9.00;98.50;;;;;;5071209;28;20221;-87
2021/10/11 23:06:15;;;;;;;29.40;22.23;;;9.00;98.50;;;;;;5079486;28;20212;-86
2021/10/11 23:08:45;;;;;;;32.58;22.20;;;9.10;98.90;;;;;;5077133;28;20224;-88
2021/10/11 23:11:12;;;;;;;33.40;22.38;;;9.10;99.00;;;;;;5076579;28;20201;-87
2021/10/11 23:13:39;;;;;;;32.50;22.50;;;9.20;99.00;;;;;;5068311;28;20234;-87
2021/10/11 23:16:06;;;;;;;29.92;22.92;;;9.10;99.50;;;;;;5051970;28;20658;-87
2021/10/11 23:18:33;;;;;;;30.05;22.48;;;9.10;99.50;;;;;;5056850;28;20226;-87
2021/10/11 23:21:00;;;;;;;31.67;22.50;;;9.10;99.50;;;;;;5059117;28;20671;-90
2021/10/11 23:23:28;;;;;;;31.40;22.63;;;9.20;99.30;;;;;;5058039;28;20221;-87
2021/10/11 23:25:56;;;;;;;29.92;22.95;;;9.20;99.30;;;;;;5058996;28;20194;-87
2021/10/11 23:28:24;;;;;;;31.90;22.15;;;9.20;99.20;;;;;;5056752;28;20218;-87
2021/10/11 23:30:51;;;;;;;33.92;22.38;;;9.20;99.40;;;;;;5059910;28;20229;-86
2021/10/11 23:33:19;;;;;;;32.88;23.92;;;9.20;99.50;;;;;;5060657;28;20237;-87
2021/10/11 23:35:46;;;;;;;31.33;22.80;;;9.20;99.70;;;;;;5055767;28;20205;-88
2021/10/11 23:38:13;;;;;;;31.55;22.25;;;9.10;99.70;;;;;;5054988;28;20222;-87
2021/10/11 23:40:40;;;;;;;32.72;23.95;;;9.20;99.90;;;;;;5063504;28;20536;-87
2021/10/11 23:43:09;;;;;;;29.40;22.63;;;9.20;99.40;;;;;;5055552;28;20226;-88
2021/10/11 23:45:36;;;;;;;31.75;22.65;;;9.20;99.60;;;;;;5055688;28;20261;-87
2021/10/11 23:48:03;;;;;;;30.45;23.00;;;9.20;99.70;;;;;;5063035;28;20579;-87
2021/10/11 23:50:30;;;;;;;33.00;22.17;;;9.20;99.50;;;;;;5061164;28;20654;-87
2021/10/11 23:52:59;;;;;;;32.75;22.08;;;9.20;99.50;;;;;;5061205;28;20213;-87
2021/10/11 23:55:26;;;;;;;30.52;21.60;;;9.20;99.40;;;;;;5063434;28;20194;-88
2021/10/11 23:57:53;;;;;;;31.17;23.33;;;9.20;99.30;;;;;;5062954;28;20194;-88
